Flight Track Log - Related Links

Times and Time Zones

All times are in EDT time to prevent confusion due to time zone crossing. See the ASQ6041 flight status page for this flight to view local times or setup timezone preferences in your user account.

Time Position Orientation Groundspeed Altitude Reporting Facility
EDT Latitude Longitude Course Direction KTS MPH feet Rate Location/Type
Thu 02:01:05 PM 40.9039 -96.8211 312° West 210 242 3,900  Level Minneapolis Center
Thu 02:01:12 PM 40.8914 -96.8342 218° Southwest 252 290 4,100 2,000 Climbing Minneapolis Center
Thu 02:02:08 PM 40.8903 -96.9183 269° West 272 313 6,000 2,034 Climbing Minneapolis Center
Thu 02:03:00 PM 40.8036 -97.2753 257° West  Level Estimated
Thu 02:03:10 PM 40.8739 -97.0156 257° West 271 312 8,100  Level Minneapolis Center
Thu 02:04:00 PM 40.7914 -97.4042 246° West  Level Estimated
Thu 02:04:12 PM 40.8544 -97.1172 256° West 281 323 10,300  Level Minneapolis Center
Thu 02:05:00 PM 40.7791 -97.5331 261° West  Level Estimated
Thu 02:05:14 PM 40.8347 -97.2250 256° West 297 342 11,400  Level Minneapolis Center
Thu 02:06:16 PM 40.8081 -97.3689 256° West 328 377 12,700 1,113 Climbing Minneapolis Center
Thu 02:07:18 PM 40.7867 -97.4889 257° West 346 398 13,700 968 Climbing Minneapolis Center
Thu 02:08:20 PM 40.7608 -97.6189 255° West 360 414 14,700 968 Climbing Minneapolis Center
Thu 02:09:22 PM 40.7364 -97.7508 256° West 366 421 15,700 1,056 Climbing Minneapolis Center
Thu 02:10:25 PM 40.7053 -97.9114 256° West 374 430 16,900 960 Climbing Minneapolis Center
Thu 02:11:27 PM 40.6794 -98.0447 256° West 375 432 17,700 871 Climbing Minneapolis Center
Thu 02:12:29 PM 40.6533 -98.1800 256° West 378 435 18,700 968 Climbing Minneapolis Center
Thu 02:13:31 PM 40.6272 -98.3153 256° West 379 436 19,700 968 Climbing Minneapolis Center
Thu 02:14:33 PM 40.6069 -98.4556 259° West 393 452 20,700 968 Climbing Minneapolis Center
Thu 02:15:35 PM 40.6189 -98.5975 276° West 393 452 21,700 968 Climbing Minneapolis Center
Thu 02:16:37 PM 40.6319 -98.7408 277° West 392 451 22,700 1,016 Climbing Minneapolis Center
Thu 02:17:39 PM 40.6442 -98.8839 276° West 392 451 23,800 1,113 Climbing Minneapolis Center
Thu 02:18:41 PM 40.6597 -99.0556 277° West 392 451 25,000 1,017 Climbing Minneapolis Center
Thu 02:19:37 PM 40.6694 -99.1678 277° West 389 448 25,800 915 Climbing Denver Center
Thu 02:20:39 PM 40.6819 -99.3094 277° West 387 445 26,800 968 Climbing Denver Center
Thu 02:21:41 PM 40.6936 -99.4497 276° West 385 443 27,800 1,065 Climbing Denver Center
Thu 02:22:43 PM 40.7067 -99.6158 276° West 380 437 29,000 1,065 Climbing Denver Center
Thu 02:23:45 PM 40.7178 -99.7528 276° West 377 434 30,000 484 Climbing Denver Center
Thu 02:24:47 PM 40.7281 -99.8842 276° West 383 441 30,000  Level Denver Center
Thu 02:25:49 PM 40.7414 -100.0519 276° West 408 470 30,000  Level Denver Center
Thu 02:26:51 PM 40.7528 -100.2011 276° West 424 488 30,000  Level Denver Center
Thu 02:27:54 PM 40.7656 -100.3767 276° West 430 495 30,000  Level Denver Center
Thu 02:28:56 PM 40.7772 -100.5289 276° West 433 498 30,000  Level Denver Center
Thu 02:29:58 PM 40.7778 -100.7083 270° West 446 513 30,000  Level Denver Center
Thu 02:31:00 PM 40.7500 -100.8672 257° West 444 511 30,000  Level Denver Center
Thu 02:32:02 PM 40.7269 -101.0164 259° West 435 501 30,000  Level Denver Center
Thu 02:33:04 PM 40.6967 -101.1903 257° West 436 502 30,000  Level Denver Center
Thu 02:34:06 PM 40.6714 -101.3361 257° West 430 495 30,000  Level Denver Center
Thu 02:35:08 PM 40.6492 -101.4597 257° West 433 498 30,000  Level Denver Center
Thu 02:36:10 PM 40.6150 -101.6550 257° West 429 494 30,000  Level Denver Center
Thu 02:37:12 PM 40.5836 -101.8253 256° West 430 495 30,000  Level Denver Center
Thu 02:38:14 PM 40.5578 -101.9706 257° West 427 491 30,000  Level Denver Center
Thu 02:39:17 PM 40.5256 -102.1408 256° West 430 495 30,000  Level Denver Center
Thu 02:40:19 PM 40.4997 -102.2869 257° West 430 495 30,000  Level Denver Center
Thu 02:41:21 PM 40.4678 -102.4572 256° West 432 497 30,000  Level Denver Center
Thu 02:42:23 PM 40.4403 -102.6039 256° West 433 498 30,000  Level Denver Center
Thu 02:43:25 PM 40.4114 -102.7556 256° West 436 502 30,000  Level Denver Center
Thu 02:44:27 PM 40.3831 -102.9111 257° West 440 506 30,000 -532 Level Denver Center
Thu 02:45:29 PM 40.3467 -103.0950 256° West 436 502 28,900 -1,065 Descending Denver Center
Thu 02:46:31 PM 40.3194 -103.2461 257° West 429 494 27,800 -1,258 Descending Denver Center
Thu 02:47:33 PM 40.2897 -103.3953 255° West 425 489 26,300 -1,452 Descending Denver Center
Thu 02:48:35 PM 40.2631 -103.5356 256° West 403 464 24,800 -1,324 Descending Denver Center
Thu 02:49:49 PM 40.2356 -103.6747 256° West 396 456 23,300 -1,620 Descending Denver Center
Thu 02:50:52 PM 40.2044 -103.8617 258° West 386 444 21,100 -1,968 Descending Denver Center
Thu 02:51:54 PM 40.2003 -103.9833 267° West 339 390 19,200 -1,790 Descending Denver Center
Thu 02:52:56 PM 40.1950 -104.1108 267° West 329 379 17,400 -1,694 Descending Denver Center
Thu 02:53:58 PM 40.1600 -104.2108 245° Southwest 305 351 15,700 -1,452 Descending Denver Center
Thu 02:55:00 PM 40.0925 -104.2850 220° Southwest 290 334 14,400 -774 Descending Denver Center
Thu 02:56:02 PM 40.0264 -104.3592 221° Southwest 311 358 14,100 -250 Descending Denver Center
Thu 02:56:36 PM 39.9833 -104.4000 216° Southwest 304 350 14,000 -60 Descending Denver TRACON
Thu 02:57:42 PM 39.9167 -104.4833 224° Southwest 310 357 14,000 -476 Level Denver TRACON
Thu 02:58:42 PM 39.8333 -104.5000 189° South 289 333 13,000 -1,571 Descending Denver TRACON
Thu 02:59:48 PM 39.7500 -104.5000 180° South 268 308 10,700 -1,667 Descending Denver TRACON
Thu 03:00:48 PM 39.6833 -104.5000 180° South 238 274 9,500 -1,250 Descending Denver TRACON
Thu 03:01:48 PM 39.6333 -104.5333 207° Southwest 233 268 8,200 -762 Descending Denver TRACON
Thu 03:02:54 PM 39.5833 -104.5833 218° Southwest 217 250 7,900 -158 Descending Denver TRACON
Thu 03:03:42 PM 39.6167 -104.6333 311° West 204 235 7,900 69 Level Denver TRACON
Thu 03:04:21 PM 39.6461 -104.6439 345° North 206 237 8,000 59 Climbing Denver Center
Thu 03:05:23 PM 39.7003 -104.6428 North 198 228 8,000 -484 Level Denver Center
Thu 03:06:25 PM 39.7525 -104.6428 360° North 173 199 7,000 -871 Descending Denver Center
Thu 03:07:27 PM 39.7953 -104.6417 North 156 180 6,200 -726 Descending Denver Center
Thu 03:08:29 PM 39.8422 -104.6417 360° North 157 181 5,500 -677 Descending Denver Center

Login

Don't have an account? Register now (free) for customized features, flight alerts, and more!